sensor_id;sensor_type;location;lat;lon;timestamp;P1;durP1;ratioP1;P2;durP2;ratioP2
70414;SDS011;57837;52.064;113.478;2024-02-26T00:01:37;59.20;;;30.70;;
70414;SDS011;57837;52.064;113.478;2024-02-26T00:04:41;24.75;;;15.77;;
70414;SDS011;57837;52.064;113.478;2024-02-26T00:07:44;47.20;;;21.08;;
70414;SDS011;57837;52.064;113.478;2024-02-26T00:10:48;58.63;;;22.98;;
70414;SDS011;57837;52.064;113.478;2024-02-26T00:13:50;58.28;;;35.72;;
70414;SDS011;57837;52.064;113.478;2024-02-26T00:16:54;84.22;;;28.45;;
70414;SDS011;57837;52.064;113.478;2024-02-26T00:19:58;69.67;;;48.10;;
70414;SDS011;57837;52.064;113.478;2024-02-26T00:23:01;103.25;;;34.33;;
70414;SDS011;57837;52.064;113.478;2024-02-26T00:26:04;24.58;;;16.05;;
70414;SDS011;57837;52.064;113.478;2024-02-26T00:29:08;32.80;;;18.63;;
70414;SDS011;57837;52.064;113.478;2024-02-26T00:32:13;57.38;;;22.75;;
70414;SDS011;57837;52.064;113.478;2024-02-26T00:35:16;45.97;;;23.38;;
70414;SDS011;57837;52.064;113.478;2024-02-26T00:38:23;44.47;;;26.98;;
70414;SDS011;57837;52.064;113.478;2024-02-26T00:41:26;33.28;;;16.70;;
70414;SDS011;57837;52.064;113.478;2024-02-26T00:44:30;26.67;;;19.65;;
70414;SDS011;57837;52.064;113.478;2024-02-26T00:47:34;56.00;;;31.40;;
70414;SDS011;57837;52.064;113.478;2024-02-26T00:50:37;75.90;;;33.97;;
70414;SDS011;57837;52.064;113.478;2024-02-26T00:53:41;86.85;;;35.45;;
70414;SDS011;57837;52.064;113.478;2024-02-26T00:56:44;46.35;;;22.83;;
70414;SDS011;57837;52.064;113.478;2024-02-26T00:59:48;57.27;;;32.10;;
70414;SDS011;57837;52.064;113.478;2024-02-26T01:02:53;61.53;;;20.77;;
70414;SDS011;57837;52.064;113.478;2024-02-26T01:05:57;63.70;;;30.75;;
70414;SDS011;57837;52.064;113.478;2024-02-26T01:09:01;45.67;;;23.67;;
70414;SDS011;57837;52.064;113.478;2024-02-26T01:12:05;53.47;;;26.88;;
70414;SDS011;57837;52.064;113.478;2024-02-26T01:15:09;63.35;;;21.98;;
70414;SDS011;57837;52.064;113.478;2024-02-26T01:18:12;56.13;;;22.98;;
70414;SDS011;57837;52.064;113.478;2024-02-26T01:21:16;34.40;;;21.30;;
70414;SDS011;57837;52.064;113.478;2024-02-26T01:24:20;59.63;;;22.85;;
70414;SDS011;57837;52.064;113.478;2024-02-26T01:27:25;42.30;;;26.27;;
70414;SDS011;57837;52.064;113.478;2024-02-26T01:30:31;46.83;;;29.03;;
70414;SDS011;57837;52.064;113.478;2024-02-26T01:33:35;49.33;;;22.95;;
70414;SDS011;57837;52.064;113.478;2024-02-26T01:36:40;47.10;;;22.70;;
70414;SDS011;57837;52.064;113.478;2024-02-26T01:39:44;39.03;;;21.52;;
70414;SDS011;57837;52.064;113.478;2024-02-26T01:42:47;50.15;;;22.90;;
70414;SDS011;57837;52.064;113.478;2024-02-26T01:45:51;41.33;;;17.23;;
70414;SDS011;57837;52.064;113.478;2024-02-26T01:48:54;27.33;;;12.07;;
70414;SDS011;57837;52.064;113.478;2024-02-26T01:51:58;24.43;;;11.63;;
70414;SDS011;57837;52.064;113.478;2024-02-26T01:55:01;15.68;;;11.23;;
70414;SDS011;57837;52.064;113.478;2024-02-26T01:58:05;26.50;;;18.55;;
70414;SDS011;57837;52.064;113.478;2024-02-26T02:01:09;27.83;;;18.03;;
70414;SDS011;57837;52.064;113.478;2024-02-26T02:04:13;74.00;;;34.33;;
70414;SDS011;57837;52.064;113.478;2024-02-26T02:07:17;62.25;;;31.48;;
70414;SDS011;57837;52.064;113.478;2024-02-26T02:10:23;79.95;;;31.08;;
70414;SDS011;57837;52.064;113.478;2024-02-26T02:13:28;63.08;;;26.45;;
70414;SDS011;57837;52.064;113.478;2024-02-26T02:16:31;95.65;;;37.97;;
70414;SDS011;57837;52.064;113.478;2024-02-26T02:19:34;69.38;;;34.08;;
70414;SDS011;57837;52.064;113.478;2024-02-26T02:22:38;40.03;;;19.53;;
70414;SDS011;57837;52.064;113.478;2024-02-26T02:25:41;44.75;;;23.48;;
70414;SDS011;57837;52.064;113.478;2024-02-26T02:28:45;50.28;;;18.27;;
70414;SDS011;57837;52.064;113.478;2024-02-26T02:31:50;86.93;;;33.17;;
70414;SDS011;57837;52.064;113.478;2024-02-26T02:34:53;106.75;;;39.45;;
70414;SDS011;57837;52.064;113.478;2024-02-26T02:37:57;57.15;;;29.35;;
70414;SDS011;57837;52.064;113.478;2024-02-26T02:41:01;47.95;;;17.70;;
70414;SDS011;57837;52.064;113.478;2024-02-26T02:44:04;34.92;;;12.23;;
70414;SDS011;57837;52.064;113.478;2024-02-26T02:47:07;14.57;;;9.75;;
70414;SDS011;57837;52.064;113.478;2024-02-26T02:50:11;38.30;;;15.60;;
70414;SDS011;57837;52.064;113.478;2024-02-26T02:53:14;20.90;;;9.63;;
70414;SDS011;57837;52.064;113.478;2024-02-26T02:56:19;31.00;;;12.35;;
70414;SDS011;57837;52.064;113.478;2024-02-26T02:59:23;19.05;;;9.45;;
70414;SDS011;57837;52.064;113.478;2024-02-26T03:02:28;42.60;;;17.20;;
70414;SDS011;57837;52.064;113.478;2024-02-26T03:05:32;18.77;;;7.78;;
70414;SDS011;57837;52.064;113.478;2024-02-26T03:08:37;12.65;;;7.03;;
70414;SDS011;57837;52.064;113.478;2024-02-26T03:11:42;26.13;;;12.50;;
70414;SDS011;57837;52.064;113.478;2024-02-26T03:14:46;11.40;;;8.20;;
70414;SDS011;57837;52.064;113.478;2024-02-26T03:17:50;40.47;;;17.52;;
70414;SDS011;57837;52.064;113.478;2024-02-26T03:20:55;17.20;;;8.10;;
70414;SDS011;57837;52.064;113.478;2024-02-26T03:23:59;18.83;;;13.07;;
70414;SDS011;57837;52.064;113.478;2024-02-26T03:27:02;22.02;;;15.20;;
70414;SDS011;57837;52.064;113.478;2024-02-26T03:30:09;28.95;;;10.02;;
70414;SDS011;57837;52.064;113.478;2024-02-26T03:33:13;79.77;;;23.97;;
70414;SDS011;57837;52.064;113.478;2024-02-26T03:36:18;24.42;;;14.27;;
70414;SDS011;57837;52.064;113.478;2024-02-26T03:39:22;55.47;;;18.80;;
70414;SDS011;57837;52.064;113.478;2024-02-26T03:42:27;20.08;;;13.18;;
70414;SDS011;57837;52.064;113.478;2024-02-26T03:45:30;36.67;;;15.82;;
70414;SDS011;57837;52.064;113.478;2024-02-26T03:48:35;72.93;;;27.42;;
70414;SDS011;57837;52.064;113.478;2024-02-26T03:51:39;28.35;;;17.23;;
70414;SDS011;57837;52.064;113.478;2024-02-26T03:54:43;22.60;;;16.40;;
70414;SDS011;57837;52.064;113.478;2024-02-26T03:57:47;88.78;;;33.65;;
70414;SDS011;57837;52.064;113.478;2024-02-26T04:00:51;56.20;;;23.15;;
70414;SDS011;57837;52.064;113.478;2024-02-26T04:03:54;36.27;;;17.47;;
70414;SDS011;57837;52.064;113.478;2024-02-26T04:06:58;62.53;;;24.92;;
70414;SDS011;57837;52.064;113.478;2024-02-26T04:10:02;80.28;;;32.50;;
70414;SDS011;57837;52.064;113.478;2024-02-26T04:13:09;36.05;;;19.10;;
70414;SDS011;57837;52.064;113.478;2024-02-26T04:16:13;93.10;;;34.13;;
70414;SDS011;57837;52.064;113.478;2024-02-26T04:19:18;77.38;;;30.33;;
70414;SDS011;57837;52.064;113.478;2024-02-26T04:22:22;57.25;;;22.75;;
70414;SDS011;57837;52.064;113.478;2024-02-26T04:25:26;34.77;;;20.43;;
70414;SDS011;57837;52.064;113.478;2024-02-26T04:28:31;49.28;;;21.75;;
70414;SDS011;57837;52.064;113.478;2024-02-26T04:31:36;55.65;;;25.77;;
70414;SDS011;57837;52.064;113.478;2024-02-26T04:34:41;73.17;;;30.47;;
70414;SDS011;57837;52.064;113.478;2024-02-26T04:37:45;69.00;;;32.45;;
70414;SDS011;57837;52.064;113.478;2024-02-26T04:40:49;85.65;;;33.20;;
70414;SDS011;57837;52.064;113.478;2024-02-26T04:43:53;79.25;;;30.77;;
70414;SDS011;57837;52.064;113.478;2024-02-26T04:46:56;97.65;;;37.45;;
70414;SDS011;57837;52.064;113.478;2024-02-26T04:50:00;75.63;;;30.15;;
70414;SDS011;57837;52.064;113.478;2024-02-26T04:53:04;83.57;;;32.85;;
70414;SDS011;57837;52.064;113.478;2024-02-26T04:56:08;59.10;;;24.60;;
70414;SDS011;57837;52.064;113.478;2024-02-26T04:59:12;68.43;;;27.65;;
70414;SDS011;57837;52.064;113.478;2024-02-26T05:02:16;77.53;;;30.27;;
70414;SDS011;57837;52.064;113.478;2024-02-26T05:05:20;64.37;;;25.03;;
70414;SDS011;57837;52.064;113.478;2024-02-26T05:08:24;55.53;;;19.48;;
70414;SDS011;57837;52.064;113.478;2024-02-26T05:11:28;67.30;;;24.77;;
70414;SDS011;57837;52.064;113.478;2024-02-26T05:14:32;35.05;;;16.58;;
70414;SDS011;57837;52.064;113.478;2024-02-26T05:17:36;24.77;;;11.15;;
70414;SDS011;57837;52.064;113.478;2024-02-26T05:20:39;24.35;;;8.27;;
70414;SDS011;57837;52.064;113.478;2024-02-26T05:23:43;37.17;;;12.02;;
70414;SDS011;57837;52.064;113.478;2024-02-26T05:26:48;17.80;;;7.83;;
70414;SDS011;57837;52.064;113.478;2024-02-26T05:29:52;24.38;;;8.00;;
70414;SDS011;57837;52.064;113.478;2024-02-26T05:32:57;26.42;;;8.75;;
70414;SDS011;57837;52.064;113.478;2024-02-26T05:36:01;26.43;;;9.40;;
70414;SDS011;57837;52.064;113.478;2024-02-26T05:39:08;8.95;;;4.53;;
70414;SDS011;57837;52.064;113.478;2024-02-26T05:42:19;17.42;;;6.35;;
70414;SDS011;57837;52.064;113.478;2024-02-26T05:45:23;10.40;;;4.68;;
70414;SDS011;57837;52.064;113.478;2024-02-26T05:48:27;5.97;;;3.42;;
70414;SDS011;57837;52.064;113.478;2024-02-26T05:51:32;12.05;;;5.65;;
70414;SDS011;57837;52.064;113.478;2024-02-26T05:54:35;14.40;;;5.63;;
70414;SDS011;57837;52.064;113.478;2024-02-26T05:57:40;19.40;;;6.40;;
70414;SDS011;57837;52.064;113.478;2024-02-26T06:00:44;19.50;;;5.13;;
70414;SDS011;57837;52.064;113.478;2024-02-26T06:03:48;10.27;;;3.95;;
70414;SDS011;57837;52.064;113.478;2024-02-26T06:06:52;15.83;;;5.87;;
70414;SDS011;57837;52.064;113.478;2024-02-26T06:09:56;13.93;;;4.72;;
70414;SDS011;57837;52.064;113.478;2024-02-26T06:13:00;14.75;;;3.22;;
70414;SDS011;57837;52.064;113.478;2024-02-26T06:16:04;16.08;;;5.03;;
70414;SDS011;57837;52.064;113.478;2024-02-26T06:19:08;5.53;;;3.35;;
70414;SDS011;57837;52.064;113.478;2024-02-26T06:22:15;12.45;;;2.95;;
70414;SDS011;57837;52.064;113.478;2024-02-26T06:25:19;10.68;;;3.72;;
70414;SDS011;57837;52.064;113.478;2024-02-26T06:28:23;4.60;;;2.53;;
70414;SDS011;57837;52.064;113.478;2024-02-26T06:31:27;7.65;;;2.40;;
70414;SDS011;57837;52.064;113.478;2024-02-26T06:34:31;2.80;;;1.58;;
70414;SDS011;57837;52.064;113.478;2024-02-26T06:37:35;9.90;;;2.80;;
70414;SDS011;57837;52.064;113.478;2024-02-26T06:40:39;7.85;;;3.00;;
70414;SDS011;57837;52.064;113.478;2024-02-26T06:43:43;10.57;;;2.30;;
70414;SDS011;57837;52.064;113.478;2024-02-26T06:46:47;8.40;;;3.20;;
70414;SDS011;57837;52.064;113.478;2024-02-26T06:49:50;7.72;;;2.28;;
70414;SDS011;57837;52.064;113.478;2024-02-26T06:52:54;6.82;;;2.03;;
70414;SDS011;57837;52.064;113.478;2024-02-26T06:55:58;8.18;;;2.17;;
70414;SDS011;57837;52.064;113.478;2024-02-26T06:59:02;8.40;;;3.33;;
70414;SDS011;57837;52.064;113.478;2024-02-26T07:02:05;5.25;;;1.55;;
70414;SDS011;57837;52.064;113.478;2024-02-26T07:05:09;2.72;;;1.48;;
70414;SDS011;57837;52.064;113.478;2024-02-26T07:08:12;11.67;;;1.73;;
70414;SDS011;57837;52.064;113.478;2024-02-26T07:11:16;4.10;;;2.30;;
70414;SDS011;57837;52.064;113.478;2024-02-26T07:14:21;8.40;;;2.45;;
70414;SDS011;57837;52.064;113.478;2024-02-26T07:17:25;2.45;;;1.17;;
70414;SDS011;57837;52.064;113.478;2024-02-26T07:20:29;11.40;;;1.92;;
70414;SDS011;57837;52.064;113.478;2024-02-26T07:23:33;5.65;;;2.00;;
70414;SDS011;57837;52.064;113.478;2024-02-26T07:26:37;5.32;;;1.25;;
70414;SDS011;57837;52.064;113.478;2024-02-26T07:29:41;6.83;;;2.57;;
70414;SDS011;57837;52.064;113.478;2024-02-26T07:32:44;9.20;;;1.85;;
70414;SDS011;57837;52.064;113.478;2024-02-26T07:35:52;7.55;;;2.00;;
70414;SDS011;57837;52.064;113.478;2024-02-26T07:38:56;6.40;;;1.77;;
70414;SDS011;57837;52.064;113.478;2024-02-26T07:42:00;4.95;;;1.73;;
70414;SDS011;57837;52.064;113.478;2024-02-26T07:45:04;9.20;;;2.63;;
70414;SDS011;57837;52.064;113.478;2024-02-26T07:48:09;10.40;;;3.67;;
70414;SDS011;57837;52.064;113.478;2024-02-26T07:51:13;15.07;;;3.63;;
70414;SDS011;57837;52.064;113.478;2024-02-26T07:54:17;2.58;;;1.25;;
70414;SDS011;57837;52.064;113.478;2024-02-26T07:57:22;8.45;;;2.83;;
70414;SDS011;57837;52.064;113.478;2024-02-26T08:00:26;5.87;;;2.67;;
70414;SDS011;57837;52.064;113.478;2024-02-26T08:03:30;1.77;;;0.90;;
70414;SDS011;57837;52.064;113.478;2024-02-26T08:06:34;6.43;;;2.08;;
70414;SDS011;57837;52.064;113.478;2024-02-26T08:09:40;7.40;;;1.50;;
70414;SDS011;57837;52.064;113.478;2024-02-26T08:12:44;3.70;;;1.55;;
70414;SDS011;57837;52.064;113.478;2024-02-26T08:15:48;7.40;;;1.92;;
70414;SDS011;57837;52.064;113.478;2024-02-26T08:18:52;8.25;;;2.40;;
70414;SDS011;57837;52.064;113.478;2024-02-26T08:21:56;5.35;;;1.95;;
70414;SDS011;57837;52.064;113.478;2024-02-26T08:25:04;4.75;;;2.53;;
70414;SDS011;57837;52.064;113.478;2024-02-26T08:28:09;14.38;;;1.58;;
70414;SDS011;57837;52.064;113.478;2024-02-26T08:31:16;2.13;;;1.00;;
70414;SDS011;57837;52.064;113.478;2024-02-26T08:34:19;10.38;;;1.90;;
70414;SDS011;57837;52.064;113.478;2024-02-26T08:37:23;8.05;;;2.30;;
70414;SDS011;57837;52.064;113.478;2024-02-26T08:40:27;13.27;;;2.47;;
70414;SDS011;57837;52.064;113.478;2024-02-26T08:43:30;6.95;;;3.25;;
70414;SDS011;57837;52.064;113.478;2024-02-26T08:46:34;12.43;;;3.20;;
70414;SDS011;57837;52.064;113.478;2024-02-26T08:49:42;3.53;;;1.50;;
70414;SDS011;57837;52.064;113.478;2024-02-26T08:52:46;8.43;;;2.28;;
70414;SDS011;57837;52.064;113.478;2024-02-26T08:55:53;7.82;;;2.90;;
70414;SDS011;57837;52.064;113.478;2024-02-26T08:58:56;5.72;;;2.80;;
70414;SDS011;57837;52.064;113.478;2024-02-26T09:02:02;6.83;;;2.63;;
70414;SDS011;57837;52.064;113.478;2024-02-26T09:05:06;23.42;;;3.20;;
70414;SDS011;57837;52.064;113.478;2024-02-26T09:08:10;8.60;;;2.88;;
70414;SDS011;57837;52.064;113.478;2024-02-26T09:11:15;7.40;;;2.90;;
70414;SDS011;57837;52.064;113.478;2024-02-26T09:14:21;17.92;;;3.08;;
70414;SDS011;57837;52.064;113.478;2024-02-26T09:17:29;9.35;;;4.03;;
70414;SDS011;57837;52.064;113.478;2024-02-26T09:20:36;8.90;;;3.25;;
70414;SDS011;57837;52.064;113.478;2024-02-26T09:23:40;12.73;;;3.58;;
70414;SDS011;57837;52.064;113.478;2024-02-26T09:26:46;10.13;;;4.82;;
70414;SDS011;57837;52.064;113.478;2024-02-26T09:29:50;18.77;;;3.83;;
70414;SDS011;57837;52.064;113.478;2024-02-26T09:32:53;18.97;;;5.57;;
70414;SDS011;57837;52.064;113.478;2024-02-26T09:35:58;14.52;;;5.32;;
70414;SDS011;57837;52.064;113.478;2024-02-26T09:39:02;17.38;;;5.57;;
70414;SDS011;57837;52.064;113.478;2024-02-26T09:42:07;26.60;;;4.97;;
70414;SDS011;57837;52.064;113.478;2024-02-26T09:45:17;18.27;;;6.75;;
70414;SDS011;57837;52.064;113.478;2024-02-26T09:48:23;16.50;;;5.78;;
70414;SDS011;57837;52.064;113.478;2024-02-26T09:51:27;17.67;;;6.28;;
70414;SDS011;57837;52.064;113.478;2024-02-26T09:54:32;13.07;;;4.97;;
70414;SDS011;57837;52.064;113.478;2024-02-26T09:57:38;25.00;;;6.38;;
70414;SDS011;57837;52.064;113.478;2024-02-26T10:00:49;23.27;;;7.53;;
70414;SDS011;57837;52.064;113.478;2024-02-26T10:03:57;17.40;;;5.10;;
70414;SDS011;57837;52.064;113.478;2024-02-26T10:07:02;14.35;;;4.75;;
70414;SDS011;57837;52.064;113.478;2024-02-26T10:10:07;18.65;;;5.15;;
70414;SDS011;57837;52.064;113.478;2024-02-26T10:13:12;10.03;;;4.40;;
70414;SDS011;57837;52.064;113.478;2024-02-26T10:16:16;17.90;;;5.95;;
70414;SDS011;57837;52.064;113.478;2024-02-26T10:19:27;24.27;;;7.68;;
70414;SDS011;57837;52.064;113.478;2024-02-26T10:22:34;29.98;;;8.60;;
70414;SDS011;57837;52.064;113.478;2024-02-26T10:25:40;16.83;;;8.23;;
70414;SDS011;57837;52.064;113.478;2024-02-26T10:28:59;40.08;;;10.90;;
70414;SDS011;57837;52.064;113.478;2024-02-26T10:32:04;20.98;;;8.27;;
70414;SDS011;57837;52.064;113.478;2024-02-26T10:35:08;28.83;;;9.60;;
70414;SDS011;57837;52.064;113.478;2024-02-26T10:38:12;30.88;;;11.93;;
70414;SDS011;57837;52.064;113.478;2024-02-26T10:41:16;35.65;;;13.43;;
70414;SDS011;57837;52.064;113.478;2024-02-26T10:44:20;23.77;;;10.63;;
70414;SDS011;57837;52.064;113.478;2024-02-26T10:47:24;20.50;;;9.40;;
70414;SDS011;57837;52.064;113.478;2024-02-26T10:50:28;73.88;;;22.85;;
70414;SDS011;57837;52.064;113.478;2024-02-26T10:53:32;37.53;;;17.73;;
70414;SDS011;57837;52.064;113.478;2024-02-26T10:57:01;29.52;;;13.57;;
70414;SDS011;57837;52.064;113.478;2024-02-26T11:00:05;65.55;;;23.75;;
70414;SDS011;57837;52.064;113.478;2024-02-26T11:03:13;50.80;;;17.88;;
70414;SDS011;57837;52.064;113.478;2024-02-26T11:06:21;49.10;;;19.67;;
70414;SDS011;57837;52.064;113.478;2024-02-26T11:09:25;71.60;;;26.83;;
70414;SDS011;57837;52.064;113.478;2024-02-26T11:12:31;70.35;;;26.55;;
70414;SDS011;57837;52.064;113.478;2024-02-26T11:15:40;71.47;;;27.17;;
70414;SDS011;57837;52.064;113.478;2024-02-26T11:18:46;66.97;;;25.80;;
70414;SDS011;57837;52.064;113.478;2024-02-26T11:21:54;61.08;;;23.00;;
70414;SDS011;57837;52.064;113.478;2024-02-26T11:25:01;75.90;;;27.95;;
70414;SDS011;57837;52.064;113.478;2024-02-26T11:28:06;33.80;;;14.98;;
70414;SDS011;57837;52.064;113.478;2024-02-26T11:31:15;86.68;;;36.78;;
70414;SDS011;57837;52.064;113.478;2024-02-26T11:34:21;70.20;;;27.90;;
70414;SDS011;57837;52.064;113.478;2024-02-26T11:37:26;63.80;;;25.73;;
70414;SDS011;57837;52.064;113.478;2024-02-26T11:40:31;74.07;;;31.05;;
70414;SDS011;57837;52.064;113.478;2024-02-26T11:47:10;68.93;;;27.13;;
70414;SDS011;57837;52.064;113.478;2024-02-26T11:50:34;21.92;;;12.18;;
70414;SDS011;57837;52.064;113.478;2024-02-26T11:53:45;79.60;;;29.05;;
70414;SDS011;57837;52.064;113.478;2024-02-26T11:56:51;52.03;;;20.85;;
70414;SDS011;57837;52.064;113.478;2024-02-26T11:59:56;65.68;;;25.98;;
70414;SDS011;57837;52.064;113.478;2024-02-26T12:03:13;105.30;;;33.47;;
70414;SDS011;57837;52.064;113.478;2024-02-26T12:06:18;93.03;;;32.35;;
70414;SDS011;57837;52.064;113.478;2024-02-26T12:09:31;99.80;;;33.07;;
70414;SDS011;57837;52.064;113.478;2024-02-26T12:12:39;85.13;;;27.10;;
70414;SDS011;57837;52.064;113.478;2024-02-26T12:15:44;39.70;;;15.18;;
70414;SDS011;57837;52.064;113.478;2024-02-26T12:18:49;35.43;;;12.50;;
70414;SDS011;57837;52.064;113.478;2024-02-26T12:21:53;42.60;;;16.40;;
70414;SDS011;57837;52.064;113.478;2024-02-26T12:24:59;19.00;;;7.10;;
70414;SDS011;57837;52.064;113.478;2024-02-26T12:28:06;23.45;;;9.35;;
70414;SDS011;57837;52.064;113.478;2024-02-26T12:31:11;6.47;;;5.65;;
70414;SDS011;57837;52.064;113.478;2024-02-26T12:34:14;16.58;;;7.80;;
70414;SDS011;57837;52.064;113.478;2024-02-26T12:37:20;21.60;;;9.18;;
70414;SDS011;57837;52.064;113.478;2024-02-26T12:40:24;16.47;;;10.50;;
70414;SDS011;57837;52.064;113.478;2024-02-26T12:43:29;61.58;;;24.95;;
70414;SDS011;57837;52.064;113.478;2024-02-26T12:46:33;54.38;;;22.58;;
70414;SDS011;57837;52.064;113.478;2024-02-26T12:49:37;48.33;;;21.77;;
70414;SDS011;57837;52.064;113.478;2024-02-26T12:52:45;64.80;;;22.95;;
70414;SDS011;57837;52.064;113.478;2024-02-26T12:55:51;56.08;;;19.98;;
70414;SDS011;57837;52.064;113.478;2024-02-26T12:58:54;38.58;;;17.80;;
70414;SDS011;57837;52.064;113.478;2024-02-26T13:01:58;64.47;;;24.30;;
70414;SDS011;57837;52.064;113.478;2024-02-26T13:05:03;58.38;;;22.67;;
70414;SDS011;57837;52.064;113.478;2024-02-26T13:08:08;106.32;;;46.50;;
70414;SDS011;57837;52.064;113.478;2024-02-26T13:11:39;32.60;;;26.43;;
70414;SDS011;57837;52.064;113.478;2024-02-26T13:14:42;38.67;;;20.02;;
70414;SDS011;57837;52.064;113.478;2024-02-26T13:17:46;53.10;;;30.92;;
70414;SDS011;57837;52.064;113.478;2024-02-26T13:20:51;34.47;;;16.83;;
70414;SDS011;57837;52.064;113.478;2024-02-26T13:23:54;41.40;;;22.35;;
70414;SDS011;57837;52.064;113.478;2024-02-26T13:26:59;31.17;;;17.73;;
70414;SDS011;57837;52.064;113.478;2024-02-26T13:33:15;68.05;;;20.38;;
70414;SDS011;57837;52.064;113.478;2024-02-26T13:36:20;35.50;;;26.55;;
70414;SDS011;57837;52.064;113.478;2024-02-26T13:39:27;28.15;;;18.27;;
70414;SDS011;57837;52.064;113.478;2024-02-26T13:42:31;43.63;;;28.20;;
70414;SDS011;57837;52.064;113.478;2024-02-26T13:45:36;95.93;;;37.83;;
70414;SDS011;57837;52.064;113.478;2024-02-26T13:48:41;31.80;;;19.20;;
70414;SDS011;57837;52.064;113.478;2024-02-26T13:51:45;75.33;;;23.03;;
70414;SDS011;57837;52.064;113.478;2024-02-26T13:54:49;19.42;;;12.77;;
70414;SDS011;57837;52.064;113.478;2024-02-26T13:57:53;28.88;;;19.17;;
70414;SDS011;57837;52.064;113.478;2024-02-26T14:01:22;63.30;;;36.35;;
70414;SDS011;57837;52.064;113.478;2024-02-26T14:04:26;38.25;;;19.55;;
70414;SDS011;57837;52.064;113.478;2024-02-26T14:07:29;50.45;;;16.33;;
70414;SDS011;57837;52.064;113.478;2024-02-26T14:10:34;34.83;;;12.63;;
70414;SDS011;57837;52.064;113.478;2024-02-26T14:13:38;21.50;;;14.77;;
70414;SDS011;57837;52.064;113.478;2024-02-26T14:16:44;34.60;;;17.42;;
70414;SDS011;57837;52.064;113.478;2024-02-26T14:19:48;33.83;;;19.70;;
70414;SDS011;57837;52.064;113.478;2024-02-26T14:22:52;46.80;;;22.73;;
70414;SDS011;57837;52.064;113.478;2024-02-26T14:25:56;23.13;;;12.75;;
70414;SDS011;57837;52.064;113.478;2024-02-26T14:29:00;34.78;;;18.60;;
70414;SDS011;57837;52.064;113.478;2024-02-26T14:32:04;21.90;;;9.55;;
70414;SDS011;57837;52.064;113.478;2024-02-26T14:35:09;36.88;;;18.98;;
70414;SDS011;57837;52.064;113.478;2024-02-26T14:38:18;23.73;;;12.52;;
70414;SDS011;57837;52.064;113.478;2024-02-26T14:41:23;23.10;;;16.80;;
70414;SDS011;57837;52.064;113.478;2024-02-26T14:44:26;16.43;;;9.70;;
70414;SDS011;57837;52.064;113.478;2024-02-26T14:47:30;30.23;;;14.75;;
70414;SDS011;57837;52.064;113.478;2024-02-26T14:50:33;56.20;;;17.10;;
70414;SDS011;57837;52.064;113.478;2024-02-26T14:53:37;12.87;;;9.17;;
70414;SDS011;57837;52.064;113.478;2024-02-26T14:56:41;34.78;;;9.75;;
70414;SDS011;57837;52.064;113.478;2024-02-26T14:59:44;17.35;;;7.85;;
70414;SDS011;57837;52.064;113.478;2024-02-26T15:02:48;11.63;;;6.40;;
70414;SDS011;57837;52.064;113.478;2024-02-26T15:05:51;17.77;;;9.98;;
70414;SDS011;57837;52.064;113.478;2024-02-26T15:08:56;19.23;;;7.18;;
70414;SDS011;57837;52.064;113.478;2024-02-26T15:12:00;10.75;;;5.18;;
70414;SDS011;57837;52.064;113.478;2024-02-26T15:15:03;13.57;;;4.20;;
70414;SDS011;57837;52.064;113.478;2024-02-26T15:18:07;33.70;;;6.85;;
70414;SDS011;57837;52.064;113.478;2024-02-26T15:21:14;6.97;;;6.30;;
70414;SDS011;57837;52.064;113.478;2024-02-26T15:24:18;1.57;;;1.47;;
70414;SDS011;57837;52.064;113.478;2024-02-26T15:27:22;10.68;;;4.53;;
70414;SDS011;57837;52.064;113.478;2024-02-26T15:30:26;36.13;;;12.75;;
70414;SDS011;57837;52.064;113.478;2024-02-26T15:33:32;4.97;;;3.50;;
70414;SDS011;57837;52.064;113.478;2024-02-26T15:36:36;4.35;;;3.03;;
70414;SDS011;57837;52.064;113.478;2024-02-26T15:39:40;6.22;;;5.78;;
70414;SDS011;57837;52.064;113.478;2024-02-26T15:42:47;10.82;;;4.88;;
70414;SDS011;57837;52.064;113.478;2024-02-26T15:45:51;32.07;;;16.43;;
70414;SDS011;57837;52.064;113.478;2024-02-26T15:48:55;28.38;;;6.22;;
70414;SDS011;57837;52.064;113.478;2024-02-26T15:51:59;19.65;;;6.35;;
70414;SDS011;57837;52.064;113.478;2024-02-26T15:55:07;45.47;;;15.53;;
70414;SDS011;57837;52.064;113.478;2024-02-26T15:58:15;8.23;;;7.03;;
70414;SDS011;57837;52.064;113.478;2024-02-26T16:01:18;12.35;;;5.50;;
70414;SDS011;57837;52.064;113.478;2024-02-26T16:04:27;9.80;;;4.55;;
70414;SDS011;57837;52.064;113.478;2024-02-26T16:07:32;4.20;;;3.88;;
70414;SDS011;57837;52.064;113.478;2024-02-26T16:10:39;14.27;;;3.88;;
70414;SDS011;57837;52.064;113.478;2024-02-26T16:13:44;9.35;;;6.75;;
70414;SDS011;57837;52.064;113.478;2024-02-26T16:16:50;13.07;;;5.50;;
70414;SDS011;57837;52.064;113.478;2024-02-26T16:20:01;28.85;;;10.05;;
70414;SDS011;57837;52.064;113.478;2024-02-26T16:23:09;21.85;;;5.93;;
70414;SDS011;57837;52.064;113.478;2024-02-26T16:26:12;15.07;;;8.30;;
70414;SDS011;57837;52.064;113.478;2024-02-26T16:29:16;31.90;;;8.60;;
70414;SDS011;57837;52.064;113.478;2024-02-26T16:32:21;43.70;;;12.55;;
70414;SDS011;57837;52.064;113.478;2024-02-26T16:35:24;10.88;;;5.68;;
70414;SDS011;57837;52.064;113.478;2024-02-26T16:38:27;10.35;;;6.75;;
70414;SDS011;57837;52.064;113.478;2024-02-26T16:41:33;24.35;;;9.13;;
70414;SDS011;57837;52.064;113.478;2024-02-26T16:44:38;7.50;;;3.67;;
70414;SDS011;57837;52.064;113.478;2024-02-26T16:47:42;9.83;;;4.03;;
70414;SDS011;57837;52.064;113.478;2024-02-26T16:50:47;21.60;;;16.05;;
70414;SDS011;57837;52.064;113.478;2024-02-26T16:53:52;8.82;;;5.38;;
70414;SDS011;57837;52.064;113.478;2024-02-26T16:56:56;29.67;;;9.60;;
70414;SDS011;57837;52.064;113.478;2024-02-26T17:00:00;36.63;;;18.83;;
70414;SDS011;57837;52.064;113.478;2024-02-26T17:03:04;42.45;;;21.67;;
70414;SDS011;57837;52.064;113.478;2024-02-26T17:06:07;38.53;;;21.38;;
70414;SDS011;57837;52.064;113.478;2024-02-26T17:09:11;27.77;;;12.30;;
70414;SDS011;57837;52.064;113.478;2024-02-26T17:12:15;16.25;;;14.10;;
70414;SDS011;57837;52.064;113.478;2024-02-26T17:15:20;20.70;;;14.30;;
70414;SDS011;57837;52.064;113.478;2024-02-26T17:18:24;20.47;;;8.07;;
70414;SDS011;57837;52.064;113.478;2024-02-26T17:21:28;35.45;;;19.02;;
70414;SDS011;57837;52.064;113.478;2024-02-26T17:24:32;14.82;;;9.35;;
70414;SDS011;57837;52.064;113.478;2024-02-26T17:27:36;9.23;;;6.83;;
70414;SDS011;57837;52.064;113.478;2024-02-26T17:30:40;28.25;;;10.15;;
70414;SDS011;57837;52.064;113.478;2024-02-26T17:33:45;31.70;;;6.43;;
70414;SDS011;57837;52.064;113.478;2024-02-26T17:36:52;11.88;;;6.80;;
70414;SDS011;57837;52.064;113.478;2024-02-26T17:39:56;13.07;;;7.40;;
70414;SDS011;57837;52.064;113.478;2024-02-26T17:42:59;4.95;;;4.53;;
70414;SDS011;57837;52.064;113.478;2024-02-26T17:46:02;7.28;;;6.32;;